createdAt,value
2019-05-10T00:00:13.453Z,11.48
2019-05-10T00:03:00.019Z,9.38
2019-05-10T00:05:47.678Z,7.42
2019-05-10T00:08:34.466Z,8.03
2019-05-10T00:11:07.548Z,9.50
2019-05-10T00:13:39.100Z,7.50
2019-05-10T00:16:07.805Z,5.97
2019-05-10T00:18:36.261Z,5.10
2019-05-10T00:21:04.656Z,3.55
2019-05-10T00:23:33.079Z,8.33
2019-05-10T00:26:01.507Z,5.12
2019-05-10T00:28:29.954Z,7.72
2019-05-10T00:30:58.730Z,5.45
2019-05-10T00:33:27.145Z,8.08
2019-05-10T00:35:55.562Z,8.35
2019-05-10T00:38:23.977Z,6.97
2019-05-10T00:40:52.421Z,6.30
2019-05-10T00:43:20.839Z,5.40
2019-05-10T00:45:49.258Z,5.42
2019-05-10T00:48:17.736Z,4.03
2019-05-10T00:50:46.141Z,5.42
2019-05-10T00:53:14.866Z,4.15
2019-05-10T00:55:43.255Z,6.28
2019-05-10T00:58:11.693Z,5.47
2019-05-10T01:00:40.078Z,4.58
2019-05-10T01:03:08.697Z,3.27
2019-05-10T01:05:37.099Z,7.75
2019-05-10T01:08:05.510Z,5.22
2019-05-10T01:10:33.996Z,5.35
2019-05-10T01:13:02.560Z,5.72
2019-05-10T01:15:30.989Z,3.20
2019-05-10T01:17:59.424Z,3.90
2019-05-10T01:20:27.852Z,6.10
2019-05-10T01:22:56.440Z,5.28
2019-05-10T01:25:34.485Z,6.47
2019-05-10T01:27:55.141Z,5.80
2019-05-10T01:30:23.816Z,4.80
2019-05-10T01:32:52.668Z,7.00
2019-05-10T01:35:21.156Z,6.78
2019-05-10T01:37:49.547Z,4.95
2019-05-10T01:40:18.030Z,6.10
2019-05-10T01:42:46.443Z,5.08
2019-05-10T01:45:15.041Z,5.60
2019-05-10T01:47:43.447Z,5.03
2019-05-10T01:50:12.790Z,4.45
2019-05-10T01:52:41.203Z,6.55
2019-05-10T01:55:09.809Z,6.58
2019-05-10T01:57:38.287Z,8.28
2019-05-10T02:00:08.550Z,5.08
2019-05-10T02:02:37.160Z,7.62
2019-05-10T02:05:06.521Z,7.72
2019-05-10T02:07:35.201Z,5.70
2019-05-10T02:10:06.197Z,5.47
2019-05-10T02:12:34.677Z,7.47
2019-05-10T02:15:03.461Z,4.92
2019-05-10T02:17:31.889Z,4.75
2019-05-10T02:20:00.316Z,9.93
2019-05-10T02:22:28.731Z,5.70
2019-05-10T02:24:57.155Z,5.40
2019-05-10T02:27:25.809Z,6.62
2019-05-10T02:29:54.241Z,8.68
2019-05-10T02:32:22.667Z,5.22
2019-05-10T02:34:51.166Z,6.60
2019-05-10T02:37:19.558Z,11.35
2019-05-10T02:39:47.997Z,10.23
2019-05-10T02:42:16.696Z,5.22
2019-05-10T02:44:45.110Z,5.53
2019-05-10T02:47:13.852Z,9.40
2019-05-10T02:49:42.257Z,7.85
2019-05-10T02:52:10.858Z,6.65
2019-05-10T02:54:39.261Z,7.03
2019-05-10T02:57:08.241Z,6.65
2019-05-10T02:59:37.492Z,8.65
2019-05-10T03:02:06.718Z,7.72
2019-05-10T03:04:36.882Z,8.85
2019-05-10T03:07:07.103Z,7.60
2019-05-10T03:09:35.515Z,8.38
2019-05-10T03:12:24.712Z,5.25
2019-05-10T03:14:57.807Z,8.13
2019-05-10T03:17:27.684Z,5.95
2019-05-10T03:19:56.312Z,8.15
2019-05-10T03:22:25.920Z,7.12
2019-05-10T03:24:54.722Z,9.65
2019-05-10T03:27:23.275Z,10.13
2019-05-10T03:29:52.238Z,7.97
2019-05-10T03:32:21.583Z,9.40
2019-05-10T03:34:50.090Z,12.18
2019-05-10T03:37:18.612Z,12.03
2019-05-10T03:39:47.051Z,13.50
2019-05-10T03:42:15.775Z,10.90
2019-05-10T03:44:44.705Z,13.05
2019-05-10T03:47:13.181Z,13.30
2019-05-10T03:49:41.619Z,14.13
2019-05-10T03:52:10.053Z,11.38
2019-05-10T03:54:38.455Z,12.23
2019-05-10T03:57:13.786Z,9.55
2019-05-10T03:59:37.060Z,10.30
2019-05-10T04:02:05.517Z,8.85
2019-05-10T04:04:33.940Z,10.50
2019-05-10T04:07:02.362Z,10.93
2019-05-10T04:09:31.871Z,8.55
2019-05-10T04:12:00.377Z,10.98
2019-05-10T04:14:28.851Z,10.78
2019-05-10T04:16:57.282Z,10.53
2019-05-10T04:19:26.009Z,10.70
2019-05-10T04:21:54.415Z,9.15
2019-05-10T04:24:22.819Z,9.58
2019-05-10T04:26:51.297Z,14.67
2019-05-10T04:29:19.747Z,11.40
2019-05-10T04:31:48.234Z,15.28
2019-05-10T04:34:16.660Z,11.93
2019-05-10T04:36:45.086Z,11.70
2019-05-10T04:39:13.568Z,11.68
2019-05-10T04:41:41.967Z,10.40
2019-05-10T04:44:10.414Z,9.65
2019-05-10T04:46:38.788Z,11.45
2019-05-10T04:49:07.289Z,13.58
2019-05-10T04:51:35.695Z,9.43
2019-05-10T04:54:04.236Z,11.07
2019-05-10T04:56:32.667Z,10.53
2019-05-10T04:59:01.074Z,8.93
2019-05-10T05:01:29.475Z,14.68
2019-05-10T05:03:57.918Z,11.05
2019-05-10T05:06:26.377Z,9.70
2019-05-10T05:08:55.053Z,8.28
2019-05-10T05:11:23.439Z,9.78
2019-05-10T05:13:51.929Z,9.13
2019-05-10T05:16:20.332Z,7.05
2019-05-10T05:18:49.428Z,10.85
2019-05-10T05:21:17.974Z,10.40
2019-05-10T05:23:46.474Z,8.73
2019-05-10T05:26:14.907Z,10.65
2019-05-10T05:28:43.334Z,12.13
2019-05-10T05:31:11.745Z,12.07
2019-05-10T05:33:41.093Z,10.65
2019-05-10T05:36:09.528Z,10.60
2019-05-10T05:38:40.297Z,10.45
2019-05-10T05:41:08.136Z,10.87
2019-05-10T05:43:45.808Z,11.27
2019-05-10T05:46:06.717Z,13.13
2019-05-10T05:48:40.422Z,11.00
2019-05-10T05:51:05.332Z,16.12
2019-05-10T05:53:35.788Z,14.33
2019-05-10T05:56:12.692Z,13.22
2019-05-10T05:58:38.290Z,12.35
2019-05-10T06:01:04.431Z,12.78
2019-05-10T06:03:32.852Z,10.08
2019-05-10T06:06:01.268Z,9.35
2019-05-10T06:08:30.336Z,11.77
2019-05-10T06:11:00.012Z,14.15
2019-05-10T06:13:30.956Z,10.88
2019-05-10T06:16:00.264Z,12.03
2019-05-10T06:18:29.239Z,14.68
2019-05-10T06:20:57.636Z,12.37
2019-05-10T06:23:29.211Z,11.12
2019-05-10T06:25:56.578Z,10.57
2019-05-10T06:28:32.383Z,10.10
2019-05-10T06:30:55.255Z,9.80
2019-05-10T06:33:23.692Z,12.25
2019-05-10T06:35:52.099Z,10.80
2019-05-10T06:38:20.547Z,11.70
2019-05-10T06:40:48.976Z,11.73
2019-05-10T06:43:17.390Z,11.90
2019-05-10T06:45:46.660Z,15.75
2019-05-10T06:48:25.763Z,10.23
2019-05-10T06:50:46.203Z,11.68
2019-05-10T06:53:14.618Z,10.65
2019-05-10T06:55:43.040Z,10.98
2019-05-10T06:58:11.454Z,11.10
2019-05-10T07:00:45.062Z,11.38
2019-05-10T07:03:10.301Z,11.97
2019-05-10T07:05:38.723Z,11.22
2019-05-10T07:08:14.935Z,10.43
2019-05-10T07:10:37.309Z,13.22
2019-05-10T07:13:06.603Z,12.68
2019-05-10T07:15:41.525Z,12.80
2019-05-10T07:18:05.525Z,11.65
2019-05-10T07:20:34.690Z,12.33
2019-05-10T07:23:05.988Z,15.95
2019-05-10T07:25:37.626Z,11.48
2019-05-10T07:28:03.658Z,12.00
2019-05-10T07:30:34.733Z,9.00
2019-05-10T07:35:36.319Z,12.10
2019-05-10T07:38:01.286Z,10.32
2019-05-10T07:40:29.813Z,9.55
2019-05-10T07:42:58.267Z,9.33
2019-05-10T07:45:27.301Z,8.73
2019-05-10T07:47:56.362Z,11.33
2019-05-10T07:50:24.777Z,10.78
2019-05-10T07:52:54.437Z,10.18
2019-05-10T07:55:28.065Z,12.07
2019-05-10T07:57:53.046Z,12.55
2019-05-10T08:00:25.210Z,10.80
2019-05-10T08:03:02.423Z,8.70
2019-05-10T08:05:22.049Z,9.55
2019-05-10T08:07:50.475Z,11.25
2019-05-10T08:10:21.578Z,9.35
2019-05-10T08:12:49.073Z,9.90
2019-05-10T08:15:19.739Z,10.95
2019-05-10T08:17:50.640Z,12.93
2019-05-10T08:20:33.343Z,9.93
2019-05-10T08:22:48.789Z,10.50
2019-05-10T08:25:17.220Z,10.00
2019-05-10T08:27:50.425Z,12.25
2019-05-10T08:30:27.973Z,15.00
2019-05-10T08:32:49.833Z,10.88
2019-05-10T08:35:18.839Z,8.75
2019-05-10T08:37:47.501Z,9.80
2019-05-10T08:40:19.832Z,13.38
2019-05-10T08:42:54.165Z,10.63
2019-05-10T08:45:16.686Z,9.63
2019-05-10T08:47:45.587Z,12.20
2019-05-10T08:50:29.332Z,11.83
2019-05-10T08:52:44.573Z,13.00
2019-05-10T08:55:13.312Z,11.35
2019-05-10T08:57:44.392Z,11.80
2019-05-10T09:00:13.303Z,10.83
2019-05-10T09:02:42.839Z,13.30
2019-05-10T09:05:12.552Z,10.90
2019-05-10T09:07:42.916Z,10.70
2019-05-10T09:10:12.845Z,11.73
2019-05-10T09:12:50.570Z,10.62
2019-05-10T09:15:13.433Z,10.68
2019-05-10T09:17:42.989Z,13.90
2019-05-10T09:20:21.083Z,12.18
2019-05-10T09:22:42.660Z,13.53
2019-05-10T09:25:12.873Z,12.53
2019-05-10T09:27:43.186Z,9.08
2019-05-10T09:30:14.234Z,10.15
2019-05-10T09:32:43.532Z,11.63
2019-05-10T09:35:13.096Z,9.55
2019-05-10T09:37:42.213Z,9.17
2019-05-10T09:40:13.194Z,10.88
2019-05-10T09:42:43.633Z,9.90
2019-05-10T09:45:12.819Z,9.65
2019-05-10T09:47:43.345Z,11.65
2019-05-10T09:50:12.774Z,8.80
2019-05-10T09:52:41.396Z,9.95
2019-05-10T09:55:14.576Z,8.47
2019-05-10T09:57:40.297Z,8.10
2019-05-10T10:00:10.353Z,8.10
2019-05-10T10:02:40.665Z,9.77
2019-05-10T10:05:09.905Z,8.43
2019-05-10T10:07:38.353Z,9.98
2019-05-10T10:10:07.537Z,11.17
2019-05-10T10:12:37.324Z,11.57
2019-05-10T10:15:09.203Z,11.03
2019-05-10T10:17:41.971Z,8.00
2019-05-10T10:20:08.568Z,5.40
2019-05-10T10:22:38.166Z,6.67
2019-05-10T10:25:07.548Z,5.60
2019-05-10T10:27:39.262Z,5.12
2019-05-10T10:30:12.730Z,7.22
2019-05-10T10:32:39.719Z,7.30
2019-05-10T10:35:13.284Z,6.53
2019-05-10T10:37:39.180Z,6.75
2019-05-10T10:40:08.897Z,7.67
2019-05-10T10:42:38.272Z,7.03
2019-05-10T10:45:08.450Z,7.12
2019-05-10T10:47:38.046Z,4.95
2019-05-10T10:50:13.179Z,7.17
2019-05-10T10:52:38.777Z,5.33
2019-05-10T10:55:11.309Z,5.10
2019-05-10T10:57:39.290Z,5.47
2019-05-10T11:00:10.458Z,5.27
2019-05-10T11:05:09.107Z,4.03
2019-05-10T11:07:41.064Z,3.42
2019-05-10T11:10:17.875Z,3.47
2019-05-10T11:12:41.056Z,4.05
2019-05-10T11:15:11.225Z,4.50
2019-05-10T11:17:40.726Z,4.90
2019-05-10T11:20:11.502Z,3.53
2019-05-10T11:22:41.843Z,5.87
2019-05-10T11:25:12.884Z,5.07
2019-05-10T11:27:41.568Z,3.55
2019-05-10T11:30:12.084Z,4.53
2019-05-10T11:32:41.862Z,5.20
2019-05-10T11:35:11.791Z,4.08
2019-05-10T11:37:45.395Z,4.17
2019-05-10T11:40:11.786Z,3.98
2019-05-10T11:42:43.803Z,3.62
2019-05-10T11:45:11.212Z,4.20
2019-05-10T11:47:40.878Z,3.85
2019-05-10T11:50:10.764Z,5.70
2019-05-10T11:52:40.740Z,4.30
2019-05-10T11:55:11.415Z,4.75
2019-05-10T11:57:43.958Z,4.23
2019-05-10T12:00:24.447Z,3.72
2019-05-10T12:05:19.963Z,4.45
2019-05-10T12:07:45.612Z,5.40
2019-05-10T12:10:20.697Z,7.03
2019-05-10T12:13:00.562Z,4.87
2019-05-10T12:15:13.991Z,6.27
2019-05-10T12:17:46.330Z,4.93
2019-05-10T12:20:16.829Z,6.13
2019-05-10T12:22:47.447Z,4.83
2019-05-10T12:25:35.916Z,5.25
2019-05-10T12:26:18.753Z,4.20
2019-05-10T12:27:49.194Z,5.20
2019-05-10T12:30:16.202Z,5.17
2019-05-10T12:32:55.827Z,6.70
2019-05-10T12:35:15.301Z,5.63
2019-05-10T12:37:46.263Z,6.00
2019-05-10T12:40:15.331Z,5.17
2019-05-10T12:42:46.913Z,4.86
2019-05-10T12:45:15.443Z,4.87
2019-05-10T12:47:43.858Z,5.78
2019-05-10T12:50:13.157Z,5.67
2019-05-10T12:52:43.199Z,5.53
2019-05-10T12:55:12.547Z,4.33
2019-05-10T12:57:43.430Z,5.70
2019-05-10T13:00:13.981Z,5.30
2019-05-10T13:02:44.793Z,5.65
2019-05-10T13:05:15.651Z,5.85
2019-05-10T13:07:43.706Z,4.83
2019-05-10T13:10:12.703Z,5.47
2019-05-10T13:12:44.181Z,6.53
2019-05-10T13:15:11.599Z,4.63
2019-05-10T13:17:44.207Z,5.45
2019-05-10T13:20:10.719Z,6.08
2019-05-10T13:22:39.491Z,7.80
2019-05-10T13:25:08.906Z,6.08
2019-05-10T13:27:37.765Z,6.37
2019-05-10T13:30:07.430Z,6.15
2019-05-10T13:32:35.852Z,5.87
2019-05-10T13:35:05.709Z,5.83
2019-05-10T13:37:34.296Z,6.85
2019-05-10T13:40:05.289Z,7.62
2019-05-10T13:42:36.773Z,5.73
2019-05-10T13:45:04.676Z,8.55
2019-05-10T13:47:33.357Z,5.53
2019-05-10T13:50:02.049Z,6.58
2019-05-10T13:52:37.741Z,6.58
2019-05-10T13:55:00.679Z,6.03
2019-05-10T13:57:29.107Z,6.08
2019-05-10T13:59:57.665Z,6.83
2019-05-10T14:02:32.640Z,6.65
2019-05-10T14:04:56.260Z,6.37
2019-05-10T14:07:24.716Z,6.22
2019-05-10T14:09:53.121Z,5.80
2019-05-10T14:12:23.179Z,8.75
2019-05-10T14:14:55.380Z,7.62
2019-05-10T14:17:23.031Z,5.60
2019-05-10T14:19:51.451Z,6.20
2019-05-10T14:22:19.995Z,7.90
2019-05-10T14:24:53.151Z,7.33
2019-05-10T14:27:18.537Z,9.95
2019-05-10T14:29:46.940Z,5.37
2019-05-10T14:32:15.421Z,6.00
2019-05-10T14:34:44.566Z,5.53
2019-05-10T14:37:19.195Z,5.20
2019-05-10T14:39:44.222Z,7.08
2019-05-10T14:42:12.647Z,4.92
2019-05-10T14:44:41.046Z,5.40
2019-05-10T14:47:11.115Z,7.40
2019-05-10T14:49:42.237Z,5.93
2019-05-10T14:52:09.921Z,6.28
2019-05-10T14:54:43.829Z,5.47
2019-05-10T14:57:08.531Z,6.92
2019-05-10T14:59:37.157Z,6.15
2019-05-10T15:02:05.575Z,5.95
2019-05-10T15:04:49.442Z,4.97
2019-05-10T15:07:08.755Z,6.15
2019-05-10T15:09:34.328Z,5.43
2019-05-10T15:12:02.737Z,5.55
2019-05-10T15:14:31.166Z,5.67
2019-05-10T15:16:59.588Z,8.50
2019-05-10T15:19:31.254Z,7.12
2019-05-10T15:21:58.171Z,6.47
2019-05-10T15:24:26.592Z,5.20
2019-05-10T15:26:55.001Z,6.92
2019-05-10T15:29:24.818Z,8.18
2019-05-10T15:31:53.441Z,5.90
2019-05-10T15:34:21.983Z,5.55
2019-05-10T15:36:50.393Z,5.90
2019-05-10T15:39:23.143Z,7.15
2019-05-10T15:41:53.641Z,6.08
2019-05-10T15:44:19.118Z,6.15
2019-05-10T15:46:47.700Z,6.75
2019-05-10T15:49:22.788Z,7.47
2019-05-10T15:51:48.977Z,5.60
2019-05-10T15:54:17.207Z,5.53
2019-05-10T15:56:45.983Z,8.73
2019-05-10T15:59:18.906Z,6.28
2019-05-10T16:01:45.682Z,7.28
2019-05-10T16:04:14.529Z,6.90
2019-05-10T16:06:42.929Z,6.40
2019-05-10T16:09:17.439Z,8.45
2019-05-10T16:11:41.657Z,6.15
2019-05-10T16:14:10.066Z,6.30
2019-05-10T16:16:39.784Z,7.12
2019-05-10T16:19:12.828Z,7.47
2019-05-10T16:21:39.383Z,11.23
2019-05-10T16:24:07.844Z,7.00
2019-05-10T16:26:36.246Z,6.53
2019-05-10T16:29:04.725Z,5.65
2019-05-10T16:31:33.453Z,6.30
2019-05-10T16:34:02.265Z,8.05
2019-05-10T16:36:30.699Z,7.15
2019-05-10T16:39:01.782Z,6.15
2019-05-10T16:41:29.805Z,7.47
2019-05-10T16:44:00.118Z,6.37
2019-05-10T16:46:28.356Z,6.83
2019-05-10T16:48:56.842Z,6.92
2019-05-10T16:51:25.267Z,6.75
2019-05-10T16:53:53.667Z,6.83
2019-05-10T16:56:22.073Z,7.00
2019-05-10T16:58:53.005Z,6.58
2019-05-10T17:01:25.385Z,6.35
2019-05-10T17:03:59.161Z,7.12
2019-05-10T17:06:21.001Z,6.20
2019-05-10T17:08:49.470Z,7.20
2019-05-10T17:11:17.994Z,6.03
2019-05-10T17:13:46.416Z,6.83
2019-05-10T17:16:16.922Z,6.33
2019-05-10T17:18:49.766Z,5.05
2019-05-10T17:21:15.999Z,5.47
2019-05-10T17:23:46.834Z,4.95
2019-05-10T17:26:14.807Z,5.25
2019-05-10T17:28:43.226Z,5.75
2019-05-10T17:31:11.691Z,5.53
2019-05-10T17:33:42.717Z,5.62
2019-05-10T17:36:14.519Z,6.10
2019-05-10T17:38:40.733Z,5.13
2019-05-10T17:41:09.161Z,4.58
2019-05-10T17:43:37.559Z,7.05
2019-05-10T17:46:05.989Z,4.47
2019-05-10T17:48:34.385Z,7.85
2019-05-10T17:51:02.813Z,4.10
2019-05-10T17:53:31.252Z,6.87
2019-05-10T17:56:03.297Z,6.78
2019-05-10T17:58:33.943Z,7.30
2019-05-10T18:01:01.957Z,6.50
2019-05-10T18:03:30.814Z,6.20
2019-05-10T18:05:59.292Z,5.33
2019-05-10T18:08:27.743Z,5.17
2019-05-10T18:10:57.328Z,6.20
2019-05-10T18:13:26.280Z,5.43
2019-05-10T18:15:54.729Z,5.72
2019-05-10T18:18:23.161Z,5.40
2019-05-10T18:20:51.587Z,5.85
2019-05-10T18:23:21.028Z,5.95
2019-05-10T18:25:52.562Z,7.27
2019-05-10T18:28:21.649Z,6.45
2019-05-10T18:31:01.814Z,7.40
2019-05-10T18:33:30.313Z,6.72
2019-05-10T18:36:00.292Z,6.83
2019-05-10T18:38:30.984Z,7.87
2019-05-10T18:40:58.906Z,5.75
2019-05-10T18:43:27.354Z,6.97
2019-05-10T18:45:55.743Z,8.65
2019-05-10T18:48:24.690Z,9.28
2019-05-10T18:50:53.093Z,6.58
2019-05-10T18:53:21.714Z,8.90
2019-05-10T18:55:50.171Z,6.60
2019-05-10T18:58:23.438Z,7.00
2019-05-10T19:00:49.271Z,8.60
2019-05-10T19:03:17.739Z,8.30
2019-05-10T19:05:46.139Z,7.08
2019-05-10T19:08:14.574Z,10.00
2019-05-10T19:10:43.262Z,8.05
2019-05-10T19:13:12.006Z,10.05
2019-05-10T19:15:46.026Z,8.70
2019-05-10T19:18:11.025Z,10.18
2019-05-10T19:20:39.450Z,9.98
2019-05-10T19:23:13.260Z,8.50
2019-05-10T19:25:38.055Z,11.53
2019-05-10T19:28:07.206Z,11.40
2019-05-10T19:30:35.905Z,10.93
2019-05-10T19:33:04.459Z,12.45
2019-05-10T19:35:35.826Z,10.65
2019-05-10T19:38:03.123Z,11.38
2019-05-10T19:40:31.558Z,10.95
2019-05-10T19:43:00.000Z,13.03
2019-05-10T19:45:31.052Z,10.72
2019-05-10T19:47:58.579Z,11.40
2019-05-10T19:50:30.894Z,9.60
2019-05-10T19:52:58.462Z,10.15
2019-05-10T19:55:27.278Z,9.47
2019-05-10T19:57:56.622Z,8.78
2019-05-10T20:00:25.239Z,8.33
2019-05-10T20:02:53.652Z,10.40
2019-05-10T20:05:22.300Z,8.23
2019-05-10T20:07:50.706Z,10.18
2019-05-10T20:10:19.146Z,8.70
2019-05-10T20:12:47.543Z,8.28
2019-05-10T20:15:16.525Z,10.72
2019-05-10T20:17:45.341Z,10.38
2019-05-10T20:20:14.060Z,9.88
2019-05-10T20:22:42.469Z,8.95
2019-05-10T20:25:11.061Z,10.70
2019-05-10T20:27:39.489Z,11.20
2019-05-10T20:30:08.465Z,8.38
2019-05-10T20:32:36.968Z,11.57
2019-05-10T20:35:06.927Z,8.43
2019-05-10T20:37:35.409Z,9.03
2019-05-10T20:40:05.516Z,10.15
2019-05-10T20:42:33.937Z,10.48
2019-05-10T20:45:07.371Z,8.80
2019-05-10T20:47:32.498Z,10.48
2019-05-10T20:50:00.924Z,9.80
2019-05-10T20:52:29.382Z,10.78
2019-05-10T20:54:57.853Z,9.90
2019-05-10T20:57:27.126Z,10.30
2019-05-10T20:59:55.522Z,8.93
2019-05-10T21:02:24.003Z,9.33
2019-05-10T21:04:52.407Z,9.78
2019-05-10T21:07:20.841Z,9.93
2019-05-10T21:09:50.155Z,9.10
2019-05-10T21:12:18.692Z,9.58
2019-05-10T21:14:47.324Z,11.60
2019-05-10T21:17:15.795Z,10.48
2019-05-10T21:19:44.197Z,11.18
2019-05-10T21:22:12.623Z,10.13
2019-05-10T21:24:41.045Z,10.32
2019-05-10T21:27:09.478Z,10.65
2019-05-10T21:29:37.913Z,8.65
2019-05-10T21:32:06.588Z,9.78
2019-05-10T21:34:37.147Z,8.58
2019-05-10T21:37:05.585Z,13.83
2019-05-10T21:39:37.185Z,9.20
2019-05-10T21:42:05.650Z,10.45
2019-05-10T21:44:34.312Z,10.82
2019-05-10T21:47:02.769Z,8.63
2019-05-10T21:49:31.198Z,10.23
2019-05-10T21:51:59.614Z,11.03
2019-05-10T21:54:28.067Z,10.72
2019-05-10T21:56:56.490Z,11.33
2019-05-10T21:59:25.895Z,11.38
2019-05-10T22:01:54.369Z,8.25
2019-05-10T22:04:23.471Z,10.08
2019-05-10T22:06:51.921Z,9.28
2019-05-10T22:09:20.725Z,11.10
2019-05-10T22:11:49.205Z,12.63
2019-05-10T22:14:17.623Z,11.38
2019-05-10T22:16:46.013Z,9.38
2019-05-10T22:19:14.431Z,10.28
2019-05-10T22:21:42.914Z,9.15
2019-05-10T22:24:12.228Z,8.05
2019-05-10T22:26:40.686Z,8.38
2019-05-10T22:29:09.146Z,7.45
2019-05-10T22:31:37.556Z,8.50
2019-05-10T22:34:06.079Z,7.95
2019-05-10T22:36:35.202Z,9.98
2019-05-10T22:39:07.430Z,7.65
2019-05-10T22:41:35.744Z,7.85
2019-05-10T22:44:04.462Z,8.90
2019-05-10T22:46:32.870Z,8.18
2019-05-10T22:49:01.369Z,8.65
2019-05-10T22:51:29.768Z,7.97
2019-05-10T22:53:59.783Z,8.20
2019-05-10T22:56:28.315Z,7.93
2019-05-10T22:58:56.764Z,9.50
2019-05-10T23:01:25.260Z,9.98
2019-05-10T23:03:53.689Z,8.65
2019-05-10T23:06:22.103Z,9.20
2019-05-10T23:08:50.756Z,10.10
2019-05-10T23:11:19.386Z,8.30
2019-05-10T23:13:47.856Z,8.75
2019-05-10T23:16:16.270Z,9.93
2019-05-10T23:18:44.708Z,8.38
2019-05-10T23:21:13.138Z,10.23
2019-05-10T23:23:41.557Z,9.20
2019-05-10T23:26:13.095Z,9.68
2019-05-10T23:28:42.061Z,7.97
2019-05-10T23:31:10.468Z,8.40
2019-05-10T23:33:38.901Z,9.15
2019-05-10T23:36:07.308Z,9.00
2019-05-10T23:38:35.757Z,9.85
2019-05-10T23:41:04.321Z,10.93
2019-05-10T23:43:32.754Z,7.90
2019-05-10T23:46:01.156Z,8.30
2019-05-10T23:48:29.583Z,7.50
2019-05-10T23:50:58.009Z,8.50
2019-05-10T23:53:26.470Z,11.83
2019-05-10T23:55:54.980Z,9.60
2019-05-10T23:58:23.380Z,8.33
